createdAt,value
2018-02-08T00:01:22.605Z,36.78
2018-02-08T00:03:48.870Z,41.40
2018-02-08T00:06:15.156Z,37.97
2018-02-08T00:08:42.147Z,43.83
2018-02-08T00:11:08.376Z,39.28
2018-02-08T00:13:34.636Z,44.05
2018-02-08T00:16:00.856Z,42.25
2018-02-08T00:18:27.087Z,38.72
2018-02-08T00:20:53.335Z,34.70
2018-02-08T00:23:19.584Z,37.17
2018-02-08T00:25:45.821Z,38.40
2018-02-08T00:28:12.101Z,41.80
2018-02-08T00:30:39.788Z,48.50
2018-02-08T00:33:06.151Z,39.42
2018-02-08T00:35:32.412Z,40.38
2018-02-08T00:37:58.672Z,43.60
2018-02-08T00:40:24.912Z,38.38
2018-02-08T00:42:51.183Z,38.78
2018-02-08T00:45:17.449Z,42.80
2018-02-08T00:47:43.724Z,44.67
2018-02-08T00:50:09.940Z,38.40
2018-02-08T00:52:36.231Z,36.78
2018-02-08T00:55:04.476Z,38.60
2018-02-08T00:57:30.750Z,33.72
2018-02-08T00:59:57.151Z,36.42
2018-02-08T01:02:23.404Z,37.50
2018-02-08T01:04:50.392Z,42.47
2018-02-08T01:07:16.638Z,40.10
2018-02-08T01:09:42.973Z,39.65
2018-02-08T01:12:09.249Z,37.90
2018-02-08T01:14:35.484Z,37.10
2018-02-08T01:17:01.765Z,34.65
2018-02-08T01:19:28.064Z,39.75
2018-02-08T01:21:54.381Z,42.22
2018-02-08T01:24:20.675Z,41.78
2018-02-08T01:26:46.924Z,36.25
2018-02-08T01:29:13.163Z,34.00
2018-02-08T01:31:39.428Z,40.88
2018-02-08T01:34:05.757Z,36.42
2018-02-08T01:36:32.760Z,35.40
2018-02-08T01:38:59.037Z,40.70
2018-02-08T01:41:25.359Z,48.15
2018-02-08T01:43:52.388Z,38.78
2018-02-08T01:46:18.689Z,33.58
2018-02-08T01:48:45.022Z,42.95
2018-02-08T01:51:11.289Z,38.90
2018-02-08T01:53:37.536Z,42.55
2018-02-08T01:56:03.792Z,39.92
2018-02-08T01:58:30.042Z,37.30
2018-02-08T02:00:56.284Z,38.33
2018-02-08T02:03:22.521Z,39.00
2018-02-08T02:05:48.761Z,42.05
2018-02-08T02:08:15.006Z,39.45
2018-02-08T02:10:41.257Z,39.63
2018-02-08T02:13:07.528Z,36.58
2018-02-08T02:15:33.780Z,32.83
2018-02-08T02:18:00.041Z,37.35
2018-02-08T02:20:27.017Z,43.58
2018-02-08T02:22:53.975Z,36.33
2018-02-08T02:25:20.192Z,35.90
2018-02-08T02:27:46.632Z,43.75
2018-02-08T02:30:12.881Z,38.58
2018-02-08T02:32:39.853Z,33.25
2018-02-08T02:35:06.189Z,38.10
2018-02-08T02:37:33.152Z,37.00
2018-02-08T02:39:59.467Z,39.90
2018-02-08T02:42:26.566Z,33.47
2018-02-08T02:44:53.543Z,41.78
2018-02-08T02:47:19.786Z,34.28
2018-02-08T02:49:46.013Z,35.38
2018-02-08T02:52:12.313Z,35.60
2018-02-08T02:54:39.299Z,39.83
2018-02-08T02:57:05.517Z,45.78
2018-02-08T02:59:32.493Z,40.35
2018-02-08T03:01:58.733Z,41.75
2018-02-08T03:04:24.973Z,40.28
2018-02-08T03:06:51.253Z,38.72
2018-02-08T03:09:17.544Z,36.47
2018-02-08T03:11:43.774Z,33.78
2018-02-08T03:14:10.764Z,37.33
2018-02-08T03:16:37.009Z,35.63
2018-02-08T03:19:03.366Z,35.50
2018-02-08T03:21:29.658Z,34.35
2018-02-08T03:23:56.728Z,38.13
2018-02-08T03:26:23.720Z,39.97
2018-02-08T03:28:50.129Z,40.70
2018-02-08T03:31:17.302Z,39.55
2018-02-08T03:33:44.271Z,43.38
2018-02-08T03:36:10.532Z,35.35
2018-02-08T03:38:36.769Z,37.80
2018-02-08T03:41:03.020Z,32.13
2018-02-08T03:43:29.244Z,34.33
2018-02-08T03:45:55.541Z,37.72
2018-02-08T03:48:22.520Z,40.72
2018-02-08T03:50:48.812Z,35.35
2018-02-08T03:53:15.048Z,37.65
2018-02-08T03:55:41.336Z,37.88
2018-02-08T03:58:08.313Z,38.30
2018-02-08T04:00:35.311Z,38.38
2018-02-08T04:03:01.592Z,37.45
2018-02-08T04:05:27.852Z,33.35
2018-02-08T04:07:54.092Z,39.17
2018-02-08T04:10:21.148Z,33.67
2018-02-08T04:12:48.166Z,43.35
2018-02-08T04:15:14.405Z,40.80
2018-02-08T04:17:40.839Z,37.97
2018-02-08T04:20:07.108Z,32.80
2018-02-08T04:22:33.385Z,36.03
2018-02-08T04:24:59.592Z,36.50
2018-02-08T04:27:25.819Z,41.97
2018-02-08T04:29:52.836Z,40.15
2018-02-08T04:32:19.057Z,41.15
2018-02-08T04:34:45.352Z,35.63
2018-02-08T04:37:11.625Z,36.22
2018-02-08T04:39:50.841Z,43.90
2018-02-08T04:42:28.172Z,36.70
2018-02-08T04:45:07.548Z,37.58
2018-02-08T04:47:56.964Z,36.13
2018-02-08T04:50:23.232Z,35.25
2018-02-08T04:52:50.252Z,38.88
2018-02-08T04:57:47.637Z,41.55
2018-02-08T05:00:13.879Z,43.05
2018-02-08T05:02:40.243Z,47.92
2018-02-08T05:05:06.531Z,36.95
2018-02-08T05:07:33.545Z,38.53
2018-02-08T05:09:59.756Z,37.28
2018-02-08T05:12:25.996Z,37.13
2018-02-08T05:14:52.252Z,36.35
2018-02-08T05:17:18.492Z,39.00
2018-02-08T05:19:44.729Z,37.97
2018-02-08T05:22:10.980Z,34.67
2018-02-08T05:24:37.240Z,39.25
2018-02-08T05:27:03.509Z,45.05
2018-02-08T05:29:29.742Z,48.53
2018-02-08T05:31:56.146Z,39.10
2018-02-08T05:34:22.385Z,40.63
2018-02-08T05:36:48.636Z,40.28
2018-02-08T05:39:16.484Z,39.92
2018-02-08T05:41:43.882Z,37.55
2018-02-08T05:44:10.167Z,40.78
2018-02-08T05:46:36.408Z,40.30
2018-02-08T05:49:02.685Z,38.83
2018-02-08T05:51:28.913Z,36.47
2018-02-08T05:53:55.164Z,35.15
2018-02-08T05:56:21.472Z,35.42
2018-02-08T05:58:47.928Z,39.45
2018-02-08T06:01:14.287Z,33.55
2018-02-08T06:03:41.273Z,40.17
2018-02-08T06:06:07.568Z,36.53
2018-02-08T06:08:33.991Z,44.35
2018-02-08T06:11:00.294Z,47.00
2018-02-08T06:13:26.550Z,34.05
2018-02-08T06:15:52.861Z,39.45
2018-02-08T06:18:19.098Z,42.13
2018-02-08T06:20:45.325Z,35.03
2018-02-08T06:23:12.304Z,39.10
2018-02-08T06:25:38.577Z,36.40
2018-02-08T06:28:04.832Z,44.05
2018-02-08T06:30:31.099Z,37.45
2018-02-08T06:32:58.100Z,37.53
2018-02-08T06:35:24.332Z,42.70
2018-02-08T06:37:50.596Z,37.97
2018-02-08T06:40:16.842Z,41.17
2018-02-08T06:42:43.071Z,43.47
2018-02-08T06:45:09.285Z,42.15
2018-02-08T06:47:43.852Z,44.42
2018-02-08T06:50:10.667Z,40.45
2018-02-08T06:52:36.808Z,41.25
2018-02-08T06:55:02.825Z,38.95
2018-02-08T06:57:29.596Z,39.88
2018-02-08T06:59:55.653Z,37.00
2018-02-08T07:02:21.910Z,38.95
2018-02-08T07:04:50.772Z,34.42
2018-02-08T07:07:17.424Z,39.13
2018-02-08T07:09:43.690Z,48.55
2018-02-08T07:12:09.941Z,45.00
2018-02-08T07:14:36.204Z,43.03
2018-02-08T07:17:03.296Z,42.97
2018-02-08T07:19:29.535Z,40.85
2018-02-08T07:22:00.361Z,40.35
2018-02-08T07:24:26.829Z,40.50
2018-02-08T07:26:53.102Z,44.63
2018-02-08T07:29:19.513Z,40.75
2018-02-08T07:31:45.736Z,44.08
2018-02-08T07:34:12.689Z,46.97
2018-02-08T07:36:38.921Z,47.47
2018-02-08T07:39:05.408Z,44.53
2018-02-08T07:41:33.981Z,43.38
2018-02-08T07:44:00.488Z,46.72
2018-02-08T07:46:27.484Z,57.08
2018-02-08T07:48:53.916Z,51.28
2018-02-08T07:51:21.004Z,47.83
2018-02-08T07:53:48.015Z,51.80
2018-02-08T07:56:14.343Z,42.22
2018-02-08T07:58:42.953Z,52.33
2018-02-08T08:01:09.949Z,44.35
2018-02-08T08:03:37.403Z,41.37
2018-02-08T08:06:03.689Z,42.72
2018-02-08T08:08:29.912Z,42.33
2018-02-08T08:10:56.131Z,41.40
2018-02-08T08:13:23.134Z,48.75
2018-02-08T08:15:51.226Z,41.47
2018-02-08T08:18:18.223Z,48.70
2018-02-08T08:20:44.454Z,43.10
2018-02-08T08:23:10.712Z,43.92
2018-02-08T08:25:37.730Z,45.10
2018-02-08T08:28:04.008Z,43.28
2018-02-08T08:30:30.262Z,45.12
2018-02-08T08:32:59.880Z,46.15
2018-02-08T08:35:26.107Z,47.62
2018-02-08T08:37:52.421Z,45.60
2018-02-08T08:40:18.685Z,48.60
2018-02-08T08:42:44.954Z,51.70
2018-02-08T08:45:11.981Z,49.75
2018-02-08T08:47:38.192Z,58.15
2018-02-08T08:50:04.451Z,45.92
2018-02-08T08:52:34.552Z,43.95
2018-02-08T08:55:00.811Z,50.85
2018-02-08T08:57:28.447Z,46.45
2018-02-08T08:59:54.492Z,44.33
2018-02-08T09:02:20.758Z,43.67
2018-02-08T09:04:47.004Z,46.13
2018-02-08T09:07:13.249Z,43.22
2018-02-08T09:09:39.496Z,50.92
2018-02-08T09:12:10.262Z,48.87
2018-02-08T09:14:36.492Z,42.45
2018-02-08T09:17:03.449Z,48.00
2018-02-08T09:19:30.412Z,50.90
2018-02-08T09:21:56.762Z,40.35
2018-02-08T09:24:23.722Z,47.42
2018-02-08T09:26:50.686Z,51.53
2018-02-08T09:29:16.938Z,42.05
2018-02-08T09:31:44.921Z,38.97
2018-02-08T09:34:11.181Z,39.85
2018-02-08T09:36:38.195Z,40.33
2018-02-08T09:39:04.452Z,50.55
2018-02-08T09:41:30.717Z,45.50
2018-02-08T09:43:57.098Z,42.95
2018-02-08T09:46:23.425Z,43.00
2018-02-08T09:48:49.725Z,38.70
2018-02-08T09:51:20.017Z,41.35
2018-02-08T09:53:46.245Z,41.05
2018-02-08T09:56:12.522Z,39.28
2018-02-08T09:58:39.545Z,39.33
2018-02-08T10:01:05.804Z,44.20
2018-02-08T10:03:32.049Z,53.35
2018-02-08T10:05:58.297Z,54.45
2018-02-08T10:08:28.621Z,44.30
2018-02-08T10:10:54.863Z,41.92
2018-02-08T10:13:21.092Z,43.67
2018-02-08T10:15:47.305Z,45.22
2018-02-08T10:18:13.556Z,42.35
2018-02-08T10:20:40.663Z,39.72
2018-02-08T10:23:06.924Z,36.78
2018-02-08T10:25:38.627Z,35.13
2018-02-08T10:28:04.901Z,37.63
2018-02-08T10:30:31.163Z,35.95
2018-02-08T10:32:57.404Z,34.78
2018-02-08T10:35:23.690Z,40.75
2018-02-08T10:37:49.966Z,40.15
2018-02-08T10:40:16.248Z,36.50
2018-02-08T10:42:42.497Z,37.58
2018-02-08T10:45:08.728Z,40.97
2018-02-08T10:47:35.017Z,36.00
2018-02-08T10:50:05.262Z,38.05
2018-02-08T10:52:31.540Z,37.60
2018-02-08T10:54:57.804Z,37.65
2018-02-08T10:57:24.793Z,38.80
2018-02-08T10:59:51.750Z,36.22
2018-02-08T11:02:17.795Z,38.58
2018-02-08T11:04:49.686Z,37.65
2018-02-08T11:07:15.981Z,32.97
2018-02-08T11:09:43.025Z,36.42
2018-02-08T11:12:10.164Z,36.47
2018-02-08T11:14:36.230Z,31.05
2018-02-08T11:17:03.163Z,33.60
2018-02-08T11:19:33.916Z,37.83
2018-02-08T11:21:59.937Z,34.35
2018-02-08T11:24:25.956Z,29.80
2018-02-08T11:26:52.017Z,37.88
2018-02-08T11:29:18.077Z,34.67
2018-02-08T11:31:44.108Z,33.00
2018-02-08T11:34:10.153Z,39.80
2018-02-08T11:36:36.200Z,38.55
2018-02-08T11:39:02.419Z,39.20
2018-02-08T11:41:33.098Z,38.90
2018-02-08T11:44:00.845Z,34.50
2018-02-08T11:46:27.134Z,36.15
2018-02-08T11:48:54.118Z,34.17
2018-02-08T11:51:20.449Z,37.22
2018-02-08T11:53:47.388Z,41.05
2018-02-08T11:56:19.518Z,33.63
2018-02-08T11:58:45.625Z,41.00
2018-02-08T12:01:11.739Z,39.33
2018-02-08T12:03:37.959Z,40.47
2018-02-08T12:06:04.196Z,37.75
2018-02-08T12:08:30.417Z,33.78
2018-02-08T12:10:56.700Z,33.38
2018-02-08T12:13:22.912Z,33.50
2018-02-08T12:15:54.194Z,32.13
2018-02-08T12:18:20.492Z,32.42
2018-02-08T12:20:46.732Z,32.13
2018-02-08T12:23:12.972Z,35.20
2018-02-08T12:25:39.237Z,27.10
2018-02-08T12:28:05.486Z,24.27
2018-02-08T12:30:31.717Z,27.20
2018-02-08T12:32:57.956Z,23.92
2018-02-08T12:35:26.011Z,24.55
2018-02-08T12:37:52.236Z,26.98
2018-02-08T12:40:18.484Z,25.50
2018-02-08T12:42:44.713Z,30.12
2018-02-08T12:45:11.025Z,28.30
2018-02-08T12:47:37.253Z,31.75
2018-02-08T12:50:04.280Z,26.58
2018-02-08T12:52:30.488Z,30.25
2018-02-08T12:54:57.952Z,32.88
2018-02-08T12:57:24.199Z,28.20
2018-02-08T12:59:50.428Z,30.73
2018-02-08T13:02:16.676Z,31.08
2018-02-08T13:04:42.892Z,46.97
2018-02-08T13:07:09.920Z,29.90
2018-02-08T13:09:36.163Z,31.80
2018-02-08T13:12:02.363Z,33.60
2018-02-08T13:14:29.886Z,30.67
2018-02-08T13:17:00.704Z,27.75
2018-02-08T13:19:26.958Z,35.17
2018-02-08T13:21:53.221Z,30.67
2018-02-08T13:24:19.996Z,31.45
2018-02-08T13:26:46.780Z,26.73
2018-02-08T13:29:12.831Z,37.25
2018-02-08T13:31:44.336Z,30.00
2018-02-08T13:34:10.392Z,26.40
2018-02-08T13:36:40.065Z,38.42
2018-02-08T13:39:06.147Z,30.35
2018-02-08T13:41:32.947Z,32.58
2018-02-08T13:43:59.000Z,36.33
2018-02-08T13:46:28.924Z,31.87
2018-02-08T13:48:56.036Z,40.17
2018-02-08T13:51:28.180Z,42.67
2018-02-08T13:54:00.442Z,35.15
2018-02-08T13:56:47.063Z,35.05
2018-02-08T14:02:12.676Z,34.13
2018-02-08T14:04:39.716Z,37.35
2018-02-08T14:07:08.766Z,34.63
2018-02-08T14:09:35.029Z,36.63
2018-02-08T14:12:02.139Z,42.60
2018-02-08T14:14:28.454Z,34.13
2018-02-08T14:16:54.651Z,34.45
2018-02-08T14:19:20.881Z,32.15
2018-02-08T14:21:47.772Z,34.50
2018-02-08T14:24:14.100Z,29.65
2018-02-08T14:26:40.311Z,29.25
2018-02-08T14:29:06.520Z,40.92
2018-02-08T14:31:32.747Z,34.63
2018-02-08T14:33:58.982Z,35.92
2018-02-08T14:36:25.949Z,34.58
2018-02-08T14:38:52.161Z,27.98
2018-02-08T14:41:22.408Z,31.60
2018-02-08T14:43:48.692Z,33.00
2018-02-08T14:46:15.652Z,35.10
2018-02-08T14:48:42.601Z,29.25
2018-02-08T14:51:08.849Z,32.40
2018-02-08T14:53:35.093Z,26.87
2018-02-08T14:56:07.121Z,26.85
2018-02-08T14:58:33.350Z,22.80
2018-02-08T15:00:59.609Z,26.50
2018-02-08T15:03:25.848Z,31.33
2018-02-08T15:05:52.129Z,26.10
2018-02-08T15:08:18.384Z,31.33
2018-02-08T15:10:45.404Z,25.40
2018-02-08T15:13:17.349Z,27.70
2018-02-08T15:15:43.568Z,24.12
2018-02-08T15:18:09.841Z,24.77
2018-02-08T15:20:36.100Z,29.20
2018-02-08T15:23:02.323Z,30.73
2018-02-08T15:25:28.541Z,25.02
2018-02-08T15:27:57.505Z,26.58
2018-02-08T15:30:24.465Z,25.10
2018-02-08T15:32:50.705Z,34.70
2018-02-08T15:35:16.937Z,27.58
2018-02-08T15:37:43.176Z,25.10
2018-02-08T15:40:09.465Z,39.20
2018-02-08T15:42:36.429Z,29.42
2018-02-08T15:45:03.000Z,25.95
2018-02-08T15:47:31.084Z,30.65
2018-02-08T15:49:58.081Z,38.03
2018-02-08T15:52:25.072Z,28.23
2018-02-08T15:54:51.327Z,30.55
2018-02-08T15:57:17.669Z,26.05
2018-02-08T15:59:43.965Z,30.40
2018-02-08T16:02:15.308Z,26.95
2018-02-08T16:04:41.585Z,25.05
2018-02-08T16:07:07.860Z,25.77
2018-02-08T16:09:34.892Z,33.92
2018-02-08T16:12:01.138Z,31.25
2018-02-08T16:14:27.369Z,27.90
2018-02-08T16:16:53.752Z,27.87
2018-02-08T16:19:20.018Z,33.65
2018-02-08T16:21:49.911Z,30.12
2018-02-08T16:24:16.136Z,32.30
2018-02-08T16:26:42.348Z,32.47
2018-02-08T16:29:08.592Z,34.08
2018-02-08T16:31:34.853Z,38.50
2018-02-08T16:34:01.129Z,31.10
2018-02-08T16:36:27.320Z,35.13
2018-02-08T16:38:56.380Z,34.50
2018-02-08T16:41:22.603Z,37.47
2018-02-08T16:43:48.967Z,35.97
2018-02-08T16:46:15.235Z,30.80
2018-02-08T16:48:42.494Z,40.42
2018-02-08T16:51:08.725Z,38.22
2018-02-08T16:53:34.988Z,39.25
2018-02-08T16:56:04.610Z,37.08
2018-02-08T16:58:30.896Z,40.65
2018-02-08T17:00:57.164Z,36.97
2018-02-08T17:03:24.133Z,41.53
2018-02-08T17:05:50.412Z,35.97
2018-02-08T17:08:16.624Z,38.70
2018-02-08T17:10:44.007Z,41.35
2018-02-08T17:13:13.365Z,48.05
2018-02-08T17:15:39.634Z,39.70
2018-02-08T17:18:05.842Z,40.58
2018-02-08T17:20:32.981Z,41.92
2018-02-08T17:22:59.231Z,43.72
2018-02-08T17:25:25.509Z,50.65
2018-02-08T17:27:56.528Z,46.53
2018-02-08T17:30:22.778Z,52.22
2018-02-08T17:32:49.057Z,45.25
2018-02-08T17:35:15.289Z,45.30
2018-02-08T17:37:41.550Z,44.20
2018-02-08T17:40:07.855Z,46.60
2018-02-08T17:42:34.078Z,47.58
2018-02-08T17:45:00.306Z,44.97
2018-02-08T17:47:28.055Z,40.85
2018-02-08T17:49:56.184Z,42.97
2018-02-08T17:52:22.441Z,39.95
2018-02-08T17:54:49.417Z,43.70
2018-02-08T17:57:15.645Z,41.40
2018-02-08T17:59:41.849Z,43.85
2018-02-08T18:02:08.842Z,43.20
2018-02-08T18:04:36.223Z,46.05
2018-02-08T18:07:04.332Z,43.25
2018-02-08T18:09:30.573Z,46.95
2018-02-08T18:11:56.849Z,40.08
2018-02-08T18:14:23.257Z,41.60
2018-02-08T18:16:49.499Z,39.10
2018-02-08T18:19:15.754Z,42.33
2018-02-08T18:21:42.006Z,43.55
2018-02-08T18:27:04.708Z,45.40
2018-02-08T18:29:31.097Z,41.90
2018-02-08T18:31:58.087Z,45.28
2018-02-08T18:34:25.173Z,45.15
2018-02-08T18:36:51.448Z,48.50
2018-02-08T18:39:17.723Z,44.72
2018-02-08T18:41:44.011Z,48.80
2018-02-08T18:44:10.353Z,48.10
2018-02-08T18:46:36.695Z,50.35
2018-02-08T18:49:03.018Z,45.63
2018-02-08T18:51:29.262Z,53.63
2018-02-08T18:53:55.565Z,51.15
2018-02-08T18:56:21.822Z,46.30
2018-02-08T18:58:48.857Z,51.92
2018-02-08T19:01:16.160Z,54.35
2018-02-08T19:03:43.269Z,50.17
2018-02-08T19:06:09.642Z,47.05
2018-02-08T19:08:35.952Z,47.88
2018-02-08T19:11:02.225Z,49.20
2018-02-08T19:13:28.572Z,51.47
2018-02-08T19:15:54.844Z,52.08
2018-02-08T19:18:21.103Z,46.10
2018-02-08T19:20:48.205Z,49.25
2018-02-08T19:23:14.609Z,47.75
2018-02-08T19:25:40.991Z,49.92
2018-02-08T19:28:07.297Z,46.92
2018-02-08T19:30:34.264Z,52.95
2018-02-08T19:33:01.292Z,62.47
2018-02-08T19:35:27.510Z,47.67
2018-02-08T19:37:54.177Z,55.30
2018-02-08T19:40:20.441Z,44.42
2018-02-08T19:42:47.404Z,51.00
2018-02-08T19:45:15.220Z,49.25
2018-02-08T19:47:41.686Z,63.72
2018-02-08T19:50:07.881Z,53.28
2018-02-08T19:52:34.933Z,56.80
2018-02-08T19:55:01.912Z,53.38
2018-02-08T19:57:28.155Z,57.10
2018-02-08T19:59:54.429Z,54.58
2018-02-08T20:02:20.809Z,61.33
2018-02-08T20:04:47.112Z,57.80
2018-02-08T20:07:13.438Z,60.75
2018-02-08T20:09:39.794Z,52.62
2018-02-08T20:12:06.166Z,59.47
2018-02-08T20:14:32.452Z,58.78
2018-02-08T20:16:58.713Z,54.78
2018-02-08T20:19:25.040Z,59.80
2018-02-08T20:21:51.312Z,61.80
2018-02-08T20:24:17.606Z,62.62
2018-02-08T20:26:43.890Z,63.97
2018-02-08T20:29:10.301Z,61.78
2018-02-08T20:31:36.562Z,61.83
2018-02-08T20:34:03.832Z,60.17
2018-02-08T20:36:30.365Z,60.17
2018-02-08T20:38:56.622Z,55.95
2018-02-08T20:41:23.524Z,57.88
2018-02-08T20:43:49.855Z,54.25
2018-02-08T20:46:16.917Z,57.75
2018-02-08T20:48:43.916Z,61.78
2018-02-08T20:51:10.213Z,65.35
2018-02-08T20:53:36.537Z,61.92
2018-02-08T20:56:02.833Z,66.90
2018-02-08T20:58:29.801Z,61.03
2018-02-08T21:00:56.836Z,64.37
2018-02-08T21:03:23.565Z,80.97
2018-02-08T21:05:49.836Z,91.93
2018-02-08T21:08:16.163Z,64.28
2018-02-08T21:10:43.165Z,82.05
2018-02-08T21:13:09.434Z,77.80
2018-02-08T21:15:35.672Z,71.75
2018-02-08T21:18:01.935Z,73.53
2018-02-08T21:20:28.188Z,69.75
2018-02-08T21:22:54.544Z,74.72
2018-02-08T21:25:20.792Z,64.90
2018-02-08T21:27:47.052Z,69.53
2018-02-08T21:30:13.349Z,74.35
2018-02-08T21:32:40.406Z,68.97
2018-02-08T21:35:06.815Z,74.78
2018-02-08T21:37:33.092Z,64.62
2018-02-08T21:40:00.157Z,72.25
2018-02-08T21:42:26.397Z,70.60
2018-02-08T21:44:53.404Z,63.67
2018-02-08T21:47:19.656Z,58.95
2018-02-08T21:49:45.908Z,63.35
2018-02-08T21:52:12.186Z,63.08
2018-02-08T21:54:38.449Z,66.62
2018-02-08T21:57:04.693Z,59.83
2018-02-08T21:59:30.957Z,65.37
2018-02-08T22:01:57.353Z,57.00
2018-02-08T22:04:23.613Z,58.10
2018-02-08T22:06:49.980Z,61.70
2018-02-08T22:09:16.264Z,74.45
2018-02-08T22:11:42.524Z,60.42
2018-02-08T22:14:08.858Z,64.95
2018-02-08T22:16:35.841Z,63.67
2018-02-08T22:19:02.833Z,59.95
2018-02-08T22:21:29.102Z,63.25
2018-02-08T22:23:55.393Z,60.17
2018-02-08T22:26:21.663Z,65.03
2018-02-08T22:28:47.904Z,65.78
2018-02-08T22:31:14.149Z,60.92
2018-02-08T22:33:40.442Z,59.03
2018-02-08T22:36:06.705Z,69.28
2018-02-08T22:38:32.950Z,55.30
2018-02-08T22:40:59.210Z,60.45
2018-02-08T22:43:25.514Z,58.22
2018-02-08T22:45:51.779Z,61.95
2018-02-08T22:48:18.044Z,60.10
2018-02-08T22:50:44.284Z,65.68
2018-02-08T22:53:10.515Z,65.78
2018-02-08T22:55:37.386Z,56.35
2018-02-08T22:58:03.629Z,54.08
2018-02-08T23:00:29.916Z,61.03
2018-02-08T23:02:56.186Z,58.13
2018-02-08T23:05:22.497Z,60.05
2018-02-08T23:07:48.932Z,56.37
2018-02-08T23:10:15.188Z,56.08
2018-02-08T23:12:41.497Z,62.33
2018-02-08T23:15:08.526Z,57.75
2018-02-08T23:17:34.766Z,55.30
2018-02-08T23:20:01.855Z,61.53
2018-02-08T23:22:28.116Z,58.03
2018-02-08T23:24:54.448Z,54.25
2018-02-08T23:27:21.454Z,51.37
2018-02-08T23:29:48.020Z,49.33
2018-02-08T23:32:14.300Z,56.15
2018-02-08T23:34:40.969Z,54.30
2018-02-08T23:37:07.234Z,54.08
2018-02-08T23:39:33.502Z,52.40
2018-02-08T23:41:59.773Z,47.53
2018-02-08T23:44:26.773Z,56.03
2018-02-08T23:46:53.778Z,46.15
2018-02-08T23:49:20.804Z,51.60
2018-02-08T23:51:47.101Z,48.87
2018-02-08T23:54:13.472Z,49.58
2018-02-08T23:56:39.756Z,50.40
2018-02-08T23:59:06.812Z,46.75
